Time;durP1;ratioP1;P1;durP2;ratioP2;P2;SDS_P1;SDS_P2;PMS_P1;PMS_P2;Temp;Humidity;BMP_temperature;BMP_pressure;BME280_temperature;BME280_humidity;BME280_pressure;Samples;Min_cycle;Max_cycle;Signal;HPM_P1;HPM_P2
2022/07/24 00:00:08;;;;;;;10.13;3.92;;;28.20;54.30;;;;;;5041087;28;20223;-75
2022/07/24 00:02:36;;;;;;;10.25;3.60;;;28.20;54.40;;;;;;5030116;28;20195;-76
2022/07/24 00:05:06;;;;;;;7.68;4.50;;;28.10;54.50;;;;;;5036185;28;20219;-75
2022/07/24 00:07:35;;;;;;;9.43;4.15;;;28.00;54.60;;;;;;5049199;28;20201;-76
2022/07/24 00:10:05;;;;;;;13.07;4.45;;;28.00;54.70;;;;;;5034470;28;20661;-75
2022/07/24 00:12:34;;;;;;;8.45;4.22;;;28.00;54.90;;;;;;5046869;28;20190;-75
2022/07/24 00:15:04;;;;;;;12.23;3.95;;;28.00;55.10;;;;;;5035776;28;20200;-76
2022/07/24 00:17:33;;;;;;;9.45;4.15;;;27.90;55.20;;;;;;5043965;28;20199;-75
2022/07/24 00:20:01;;;;;;;11.95;4.65;;;27.80;55.30;;;;;;5033635;28;20622;-75
2022/07/24 00:22:30;;;;;;;11.00;4.53;;;27.80;55.60;;;;;;5037707;28;20195;-78
2022/07/24 00:24:58;;;;;;;7.95;4.15;;;27.80;55.60;;;;;;5038025;28;20217;-80
2022/07/24 00:27:27;;;;;;;10.25;4.32;;;27.70;55.70;;;;;;5046239;28;20874;-79
2022/07/24 00:29:55;;;;;;;12.30;4.50;;;27.70;55.80;;;;;;5038224;28;20202;-79
2022/07/24 00:32:25;;;;;;;12.38;5.60;;;27.70;56.00;;;;;;5032953;28;20707;-80
2022/07/24 00:34:53;;;;;;;12.23;5.82;;;27.60;55.90;;;;;;5037198;28;20200;-81
2022/07/24 00:37:22;;;;;;;13.38;6.32;;;27.60;56.00;;;;;;5035000;28;20202;-78
2022/07/24 00:39:50;;;;;;;11.13;6.20;;;27.60;56.00;;;;;;5034981;28;20253;-79
2022/07/24 00:42:18;;;;;;;20.83;7.35;;;27.60;56.20;;;;;;5039653;28;20230;-78
2022/07/24 00:44:47;;;;;;;16.15;6.82;;;27.60;56.20;;;;;;5028904;28;20195;-78
2022/07/24 00:47:17;;;;;;;10.75;6.55;;;27.50;56.90;;;;;;5038404;28;20249;-78
2022/07/24 00:49:47;;;;;;;16.27;5.88;;;27.50;56.30;;;;;;5039131;28;20190;-76
2022/07/24 00:52:16;;;;;;;11.93;5.32;;;27.40;56.40;;;;;;5043074;28;20213;-79
2022/07/24 00:54:44;;;;;;;9.68;4.93;;;27.40;56.40;;;;;;5031982;28;20195;-79
2022/07/24 00:57:13;;;;;;;10.80;4.28;;;27.40;56.50;;;;;;5033842;28;20875;-74
2022/07/24 00:59:41;;;;;;;8.07;4.07;;;27.40;56.50;;;;;;5031026;28;20202;-74
2022/07/24 01:02:11;;;;;;;8.52;4.15;;;27.30;56.70;;;;;;5034460;28;20203;-75
2022/07/24 01:04:40;;;;;;;8.43;4.50;;;27.30;56.70;;;;;;5036559;28;20195;-74
2022/07/24 01:07:17;;;;;;;11.05;3.85;;;27.30;56.70;;;;;;5040719;28;20256;-75
2022/07/24 01:09:45;;;;;;;6.93;4.05;;;27.20;56.70;;;;;;5040505;28;20274;-74
2022/07/24 01:12:15;;;;;;;8.50;3.50;;;27.20;56.80;;;;;;5041985;28;20187;-76
2022/07/24 01:14:43;;;;;;;7.55;4.45;;;27.20;56.90;;;;;;5041844;28;20206;-75
2022/07/24 01:17:12;;;;;;;8.15;4.35;;;27.10;56.90;;;;;;5048444;28;20695;-75
2022/07/24 01:19:41;;;;;;;8.23;4.22;;;27.10;57.00;;;;;;5050784;28;20655;-75
2022/07/24 01:22:11;;;;;;;9.45;3.90;;;27.10;57.10;;;;;;5041794;28;20281;-75
2022/07/24 01:24:39;;;;;;;10.13;4.13;;;27.10;57.10;;;;;;5033826;28;20199;-79
2022/07/24 01:27:08;;;;;;;13.85;3.72;;;27.10;57.20;;;;;;5041920;28;20209;-80
2022/07/24 01:29:37;;;;;;;11.85;3.95;;;27.00;57.30;;;;;;5042682;28;20191;-77
2022/07/24 01:32:06;;;;;;;7.70;4.07;;;27.00;57.30;;;;;;5044967;28;20209;-73
2022/07/24 01:34:34;;;;;;;7.40;3.90;;;27.00;57.50;;;;;;5039045;28;20204;-74
2022/07/24 01:37:03;;;;;;;9.02;4.13;;;27.00;57.50;;;;;;5041422;28;20203;-74
2022/07/24 01:39:33;;;;;;;7.43;3.75;;;26.90;57.50;;;;;;5034421;28;20577;-75
2022/07/24 01:42:02;;;;;;;6.78;3.72;;;26.90;57.50;;;;;;5042814;28;20228;-74
2022/07/24 01:44:30;;;;;;;7.25;3.47;;;26.90;57.60;;;;;;5039212;28;20202;-74
2022/07/24 01:46:59;;;;;;;7.13;4.10;;;26.90;57.70;;;;;;5050539;28;20191;-74
2022/07/24 01:49:27;;;;;;;7.70;3.72;;;26.80;57.70;;;;;;5044680;28;20198;-75
2022/07/24 01:51:55;;;;;;;10.73;3.90;;;26.80;57.90;;;;;;5038127;28;20199;-74
2022/07/24 01:54:24;;;;;;;11.43;4.22;;;26.80;57.90;;;;;;5038244;28;21446;-74
2022/07/24 01:56:54;;;;;;;7.93;3.63;;;26.80;58.00;;;;;;5037688;28;20348;-74
2022/07/24 01:59:22;;;;;;;8.43;3.55;;;26.80;58.10;;;;;;5040057;28;20201;-72
2022/07/24 02:01:53;;;;;;;9.05;3.83;;;26.80;58.10;;;;;;5047496;28;20405;-74
2022/07/24 02:04:22;;;;;;;10.48;4.00;;;26.70;58.10;;;;;;5048839;28;20270;-73
2022/07/24 02:06:50;;;;;;;15.57;6.35;;;26.70;58.20;;;;;;5038786;28;20219;-72
2022/07/24 02:09:19;;;;;;;10.90;5.45;;;26.70;58.50;;;;;;5044865;28;20198;-74
2022/07/24 02:11:47;;;;;;;7.28;4.10;;;26.70;58.50;;;;;;5041823;28;20198;-73
2022/07/24 02:14:17;;;;;;;6.18;3.38;;;26.70;58.60;;;;;;5044018;28;20195;-73
2022/07/24 02:16:45;;;;;;;10.38;3.88;;;26.60;58.50;;;;;;5039777;28;20194;-77
2022/07/24 02:19:14;;;;;;;7.15;3.40;;;26.60;58.50;;;;;;5035253;28;20200;-77
2022/07/24 02:21:43;;;;;;;9.00;3.58;;;26.60;58.50;;;;;;5043078;28;20211;-77
2022/07/24 02:24:11;;;;;;;5.35;3.13;;;26.60;58.50;;;;;;5037086;28;20206;-77
2022/07/24 02:26:40;;;;;;;9.85;3.50;;;26.60;58.50;;;;;;5037549;28;21143;-76
2022/07/24 02:29:08;;;;;;;7.53;3.65;;;26.50;58.60;;;;;;5045310;28;20198;-77
2022/07/24 02:31:38;;;;;;;5.88;3.63;;;26.50;58.50;;;;;;5051985;28;20186;-77
2022/07/24 02:34:07;;;;;;;11.60;3.85;;;26.50;58.60;;;;;;5036395;28;20199;-77
2022/07/24 02:36:35;;;;;;;6.20;3.67;;;26.50;58.80;;;;;;5041214;28;20665;-77
2022/07/24 02:39:04;;;;;;;10.75;3.42;;;26.40;58.70;;;;;;5028242;28;20195;-77
2022/07/24 02:41:34;;;;;;;8.07;3.40;;;26.40;58.80;;;;;;5040866;28;20222;-77
2022/07/24 02:44:02;;;;;;;5.88;3.45;;;26.40;58.90;;;;;;5037396;28;20198;-76
2022/07/24 02:46:31;;;;;;;11.45;4.35;;;26.40;59.00;;;;;;5031394;28;20591;-77
2022/07/24 02:49:01;;;;;;;9.90;4.10;;;26.30;58.90;;;;;;5040334;28;20808;-77
2022/07/24 02:51:30;;;;;;;7.70;3.53;;;26.40;59.10;;;;;;5041265;28;20195;-77
2022/07/24 02:53:58;;;;;;;8.15;3.67;;;26.40;59.20;;;;;;5038190;28;20202;-77
2022/07/24 02:56:27;;;;;;;7.05;3.58;;;26.30;59.20;;;;;;5039121;28;20275;-77
2022/07/24 02:58:55;;;;;;;8.10;3.65;;;26.30;59.20;;;;;;5043415;28;20187;-77
2022/07/24 03:01:24;;;;;;;11.23;4.03;;;26.30;59.20;;;;;;5046581;28;20747;-76
2022/07/24 03:03:52;;;;;;;9.05;3.65;;;26.30;59.30;;;;;;5037242;28;20200;-77
2022/07/24 03:06:22;;;;;;;10.23;3.88;;;26.30;59.30;;;;;;5041168;28;20234;-77
2022/07/24 03:08:51;;;;;;;7.75;3.60;;;26.30;59.40;;;;;;5036613;28;20205;-77
2022/07/24 03:11:19;;;;;;;8.50;3.80;;;26.30;59.50;;;;;;5041785;28;20214;-77
2022/07/24 03:13:47;;;;;;;5.63;3.47;;;26.30;59.60;;;;;;5040267;28;20191;-77
2022/07/24 03:16:16;;;;;;;8.57;3.70;;;26.20;59.50;;;;;;5033617;28;20194;-77
2022/07/24 03:18:48;;;;;;;9.30;3.95;;;26.20;59.60;;;;;;5039974;28;20203;-77
2022/07/24 03:21:17;;;;;;;9.70;3.47;;;26.20;59.70;;;;;;5046757;28;20308;-77
2022/07/24 03:24:07;;;;;;;6.50;3.63;;;26.20;59.80;;;;;;5035415;28;20203;-77
2022/07/24 03:26:36;;;;;;;10.38;3.85;;;26.20;59.90;;;;;;5043011;28;20187;-77
2022/07/24 03:29:04;;;;;;;7.63;3.70;;;26.20;60.80;;;;;;5032843;28;20222;-78
2022/07/24 03:31:34;;;;;;;8.40;4.25;;;26.10;59.90;;;;;;5045826;28;20202;-77
2022/07/24 03:34:03;;;;;;;6.85;3.95;;;26.10;60.00;;;;;;5036040;28;20502;-79
2022/07/24 03:36:32;;;;;;;9.85;3.55;;;26.10;60.10;;;;;;5032871;28;20191;-77
2022/07/24 03:39:00;;;;;;;8.05;3.95;;;26.10;60.40;;;;;;5035065;28;20195;-76
2022/07/24 03:41:30;;;;;;;7.07;4.60;;;26.10;60.50;;;;;;5035037;28;20214;-76
2022/07/24 03:43:59;;;;;;;4.82;3.40;;;26.10;60.50;;;;;;5036445;28;20249;-77
2022/07/24 03:46:28;;;;;;;6.57;3.78;;;26.10;60.60;;;;;;5036069;28;20191;-77
2022/07/24 03:48:57;;;;;;;5.82;3.83;;;26.10;60.70;;;;;;5037651;28;20848;-77
2022/07/24 03:51:27;;;;;;;9.05;4.40;;;26.10;60.80;;;;;;5036515;28;20194;-77
2022/07/24 03:53:55;;;;;;;11.25;4.32;;;26.10;60.80;;;;;;5043475;28;20199;-77
2022/07/24 03:56:24;;;;;;;10.85;4.43;;;26.10;61.00;;;;;;5028987;28;20603;-76
2022/07/24 03:58:56;;;;;;;9.50;4.18;;;26.10;61.10;;;;;;5031747;28;20282;-78
2022/07/24 04:01:24;;;;;;;7.60;4.20;;;26.10;61.60;;;;;;5034822;28;20191;-78
2022/07/24 04:03:53;;;;;;;9.38;4.65;;;26.10;61.70;;;;;;5039432;28;20191;-84
2022/07/24 04:06:21;;;;;;;9.00;4.18;;;26.10;62.50;;;;;;5037274;28;21063;-77
2022/07/24 04:08:50;;;;;;;7.60;4.10;;;26.10;61.70;;;;;;5038705;28;20191;-77
2022/07/24 04:11:18;;;;;;;7.78;4.15;;;26.20;61.70;;;;;;5034619;28;20200;-77
2022/07/24 04:13:47;;;;;;;13.57;4.38;;;26.20;61.90;;;;;;5038253;28;20179;-77
2022/07/24 04:16:16;;;;;;;10.07;4.45;;;26.20;62.20;;;;;;5030216;28;20191;-76
2022/07/24 04:18:45;;;;;;;8.20;4.10;;;26.20;62.20;;;;;;5045622;28;20253;-77
2022/07/24 04:21:13;;;;;;;8.52;4.13;;;26.30;62.10;;;;;;5044461;28;20194;-77
2022/07/24 04:23:42;;;;;;;7.50;4.53;;;26.30;62.20;;;;;;5043222;28;20223;-77
2022/07/24 04:26:10;;;;;;;8.85;4.40;;;26.30;62.10;;;;;;5040920;28;20281;-77
2022/07/24 04:28:39;;;;;;;7.60;4.38;;;26.30;62.20;;;;;;5045522;28;20315;-78
2022/07/24 04:31:07;;;;;;;9.30;3.88;;;26.40;62.20;;;;;;5041992;28;20198;-78
2022/07/24 04:33:37;;;;;;;10.57;4.30;;;26.40;62.00;;;;;;5037928;28;20202;-78
2022/07/24 04:36:06;;;;;;;6.53;3.97;;;26.40;62.00;;;;;;5038003;28;20197;-76
2022/07/24 04:38:39;;;;;;;11.00;4.50;;;26.50;61.90;;;;;;5036757;28;20199;-78
2022/07/24 04:41:07;;;;;;;6.72;3.90;;;26.50;62.00;;;;;;5036786;28;21375;-77
2022/07/24 04:43:36;;;;;;;7.03;3.80;;;26.60;62.10;;;;;;5037480;28;20219;-77
2022/07/24 04:46:04;;;;;;;11.52;4.13;;;26.60;61.90;;;;;;5036829;28;20203;-77
2022/07/24 04:48:33;;;;;;;8.00;3.90;;;26.70;62.00;;;;;;5035081;28;20556;-78
2022/07/24 04:51:03;;;;;;;7.78;4.13;;;26.70;61.80;;;;;;5032471;28;20196;-78
2022/07/24 04:53:31;;;;;;;7.82;4.25;;;26.70;61.90;;;;;;5045730;28;20199;-77
2022/07/24 04:56:00;;;;;;;9.23;4.45;;;26.80;61.90;;;;;;5039374;28;20191;-77
2022/07/24 04:58:28;;;;;;;10.45;4.50;;;26.80;62.00;;;;;;5044945;28;20197;-78
2022/07/24 05:00:57;;;;;;;9.13;4.15;;;26.90;62.10;;;;;;5037486;28;20199;-78
2022/07/24 05:03:25;;;;;;;8.02;4.50;;;27.00;62.30;;;;;;5048346;28;20265;-77
2022/07/24 05:05:54;;;;;;;7.43;3.65;;;27.00;62.30;;;;;;5032691;28;20262;-78
2022/07/24 05:08:23;;;;;;;10.30;4.05;;;27.00;62.20;;;;;;5030498;28;20191;-78
2022/07/24 05:10:52;;;;;;;10.45;3.63;;;27.10;62.10;;;;;;5036618;28;20199;-78
2022/07/24 05:13:20;;;;;;;10.40;4.45;;;27.20;62.10;;;;;;5040746;28;20401;-78
2022/07/24 05:15:49;;;;;;;13.27;4.45;;;27.20;62.00;;;;;;5040748;28;20195;-78
2022/07/24 05:18:17;;;;;;;7.88;4.28;;;27.30;61.90;;;;;;5042623;28;20198;-78
2022/07/24 05:20:47;;;;;;;9.65;4.40;;;27.40;61.80;;;;;;5040999;28;20195;-79
2022/07/24 05:23:15;;;;;;;8.95;3.92;;;27.40;61.70;;;;;;5042723;28;20223;-78
2022/07/24 05:25:45;;;;;;;8.48;4.22;;;27.50;61.60;;;;;;5042221;28;20191;-78
2022/07/24 05:28:17;;;;;;;10.65;4.03;;;27.60;61.50;;;;;;5040230;28;20211;-79
2022/07/24 05:30:45;;;;;;;9.13;4.22;;;27.60;61.50;;;;;;5037014;28;20198;-78
2022/07/24 05:33:13;;;;;;;8.73;3.50;;;27.70;61.30;;;;;;5047778;28;20221;-78
2022/07/24 05:35:43;;;;;;;5.63;3.33;;;27.70;61.20;;;;;;5038340;28;20195;-79
2022/07/24 05:38:16;;;;;;;10.52;3.63;;;27.80;61.00;;;;;;5044070;28;20187;-78
2022/07/24 05:40:46;;;;;;;8.82;3.70;;;27.80;60.50;;;;;;5044392;28;20195;-79
2022/07/24 05:43:16;;;;;;;6.82;3.45;;;27.90;60.20;;;;;;5043882;28;20408;-78
2022/07/24 05:45:45;;;;;;;6.20;3.55;;;28.00;59.90;;;;;;5037718;28;20219;-78
2022/07/24 05:48:13;;;;;;;9.18;3.60;;;28.00;58.50;;;;;;5037843;28;20202;-79
2022/07/24 05:50:42;;;;;;;6.88;3.47;;;28.00;58.30;;;;;;5046654;28;20191;-78
2022/07/24 05:53:10;;;;;;;6.40;3.25;;;28.10;58.20;;;;;;5046937;28;20192;-77
2022/07/24 05:55:39;;;;;;;10.68;3.22;;;28.20;58.40;;;;;;5048890;28;20839;-81
2022/07/24 05:58:09;;;;;;;9.43;3.85;;;28.20;58.50;;;;;;5041567;28;20230;-77
2022/07/24 06:00:37;;;;;;;6.40;3.72;;;28.30;58.30;;;;;;5035490;28;20195;-79
2022/07/24 06:03:06;;;;;;;8.60;3.30;;;28.30;58.50;;;;;;5041309;28;20222;-77
2022/07/24 06:05:34;;;;;;;6.32;3.20;;;28.40;58.20;;;;;;5039256;28;20227;-77
2022/07/24 06:08:03;;;;;;;5.00;2.97;;;28.50;58.20;;;;;;5042280;28;20291;-77
2022/07/24 06:10:32;;;;;;;5.80;3.20;;;28.60;58.00;;;;;;5031757;28;20199;-77
2022/07/24 06:13:01;;;;;;;7.40;3.00;;;28.60;57.60;;;;;;5033082;28;20287;-76
2022/07/24 06:15:31;;;;;;;7.18;3.33;;;28.70;57.50;;;;;;5031995;28;20196;-76
2022/07/24 06:18:06;;;;;;;6.75;3.22;;;28.80;57.50;;;;;;5050566;28;20270;-77
2022/07/24 06:20:34;;;;;;;8.80;3.63;;;28.80;57.20;;;;;;5039803;28;20203;-77
2022/07/24 06:23:03;;;;;;;5.78;2.97;;;28.90;57.10;;;;;;5038865;28;20674;-78
2022/07/24 06:25:31;;;;;;;6.75;3.58;;;29.00;57.10;;;;;;5038660;28;20367;-78
2022/07/24 06:28:00;;;;;;;7.90;3.30;;;29.10;57.00;;;;;;5039071;28;20202;-77
2022/07/24 06:30:30;;;;;;;9.98;3.78;;;29.10;56.90;;;;;;5054875;28;20194;-78
2022/07/24 06:33:00;;;;;;;8.60;3.47;;;29.20;56.70;;;;;;5040451;28;20206;-77
2022/07/24 06:35:32;;;;;;;6.68;3.17;;;29.30;56.60;;;;;;5037685;28;20968;-77
2022/07/24 06:38:01;;;;;;;5.85;3.15;;;29.30;56.30;;;;;;5043059;28;20195;-76
2022/07/24 06:40:29;;;;;;;4.82;2.67;;;29.40;56.80;;;;;;5030619;28;20191;-78
2022/07/24 06:42:58;;;;;;;10.63;3.78;;;29.50;56.00;;;;;;5044331;28;20218;-80
2022/07/24 06:45:27;;;;;;;5.65;3.30;;;29.60;56.00;;;;;;5040607;28;20206;-79
2022/07/24 06:47:56;;;;;;;6.47;2.95;;;29.70;55.90;;;;;;5044376;28;20226;-79
2022/07/24 06:50:25;;;;;;;6.10;3.25;;;29.70;55.80;;;;;;5039686;28;20194;-78
2022/07/24 06:52:54;;;;;;;5.65;3.50;;;29.80;55.80;;;;;;5035526;28;20217;-79
2022/07/24 06:55:22;;;;;;;8.02;3.47;;;29.90;55.50;;;;;;5036502;28;20715;-79
2022/07/24 06:57:51;;;;;;;6.50;3.17;;;29.90;55.10;;;;;;5037865;28;20198;-79
2022/07/24 07:00:19;;;;;;;5.80;3.13;;;30.00;54.90;;;;;;5036802;28;20199;-80
2022/07/24 07:02:49;;;;;;;8.48;3.40;;;30.10;55.00;;;;;;5040246;28;20640;-80
2022/07/24 07:05:20;;;;;;;10.60;3.28;;;30.20;54.90;;;;;;5030392;28;20606;-81
2022/07/24 07:07:48;;;;;;;7.93;3.45;;;30.30;54.70;;;;;;5043942;28;20616;-79
2022/07/24 07:10:17;;;;;;;12.02;3.85;;;30.30;54.40;;;;;;5040962;28;20298;-77
2022/07/24 07:12:46;;;;;;;9.77;3.40;;;30.40;54.10;;;;;;5034561;28;20878;-78
2022/07/24 07:15:14;;;;;;;7.95;3.65;;;30.40;53.80;;;;;;5051567;28;20790;-78
2022/07/24 07:17:43;;;;;;;6.47;3.70;;;30.50;53.90;;;;;;5044042;28;20203;-77
2022/07/24 07:20:13;;;;;;;8.52;4.07;;;30.50;54.00;;;;;;5036024;28;20561;-78
2022/07/24 07:22:43;;;;;;;6.30;3.40;;;30.60;53.90;;;;;;5037882;28;20274;-79
2022/07/24 07:25:13;;;;;;;6.72;3.78;;;30.70;53.90;;;;;;5040849;28;20306;-80
2022/07/24 07:27:41;;;;;;;8.80;3.50;;;30.70;54.00;;;;;;5044681;28;20203;-80
2022/07/24 07:30:11;;;;;;;7.45;4.50;;;30.80;54.00;;;;;;5036435;28;20203;-79
2022/07/24 07:32:41;;;;;;;13.13;3.70;;;30.90;53.90;;;;;;5027237;28;20196;-79
2022/07/24 07:35:10;;;;;;;8.60;3.70;;;31.00;53.70;;;;;;5041533;28;20237;-81
2022/07/24 07:37:51;;;;;;;6.45;3.75;;;31.00;53.60;;;;;;5036484;28;20198;-81
2022/07/24 07:40:20;;;;;;;7.07;3.95;;;31.10;53.50;;;;;;5045956;28;20195;-80
2022/07/24 07:42:49;;;;;;;10.18;4.13;;;31.20;53.40;;;;;;5041038;28;20238;-80
2022/07/24 07:45:18;;;;;;;7.13;3.53;;;31.20;53.10;;;;;;5048242;28;20229;-79
2022/07/24 07:47:46;;;;;;;8.90;3.47;;;31.30;53.10;;;;;;5051628;28;20906;-80
2022/07/24 07:50:15;;;;;;;7.28;3.83;;;31.40;53.10;;;;;;5038404;28;20195;-79
2022/07/24 07:52:44;;;;;;;7.80;3.70;;;31.40;53.00;;;;;;5033568;28;20883;-78
2022/07/24 07:55:14;;;;;;;6.85;3.60;;;31.50;52.90;;;;;;5039684;28;20206;-80
2022/07/24 07:57:43;;;;;;;7.28;3.60;;;31.60;52.30;;;;;;5037259;28;20699;-81
2022/07/24 08:00:32;;;;;;;8.25;3.60;;;31.70;52.30;;;;;;5026279;28;20845;-81
2022/07/24 08:03:01;;;;;;;9.25;3.33;;;31.80;52.20;;;;;;5037789;28;20278;-82
2022/07/24 08:08:29;;;;;;;7.43;3.53;;;31.80;51.30;;;;;;5046281;28;20275;-80
2022/07/24 08:11:01;;;;;;;9.80;3.85;;;31.90;51.40;;;;;;5042478;28;20192;-81
2022/07/24 08:13:29;;;;;;;9.27;3.90;;;32.00;51.40;;;;;;5044151;28;20186;-78
2022/07/24 08:15:58;;;;;;;7.97;3.78;;;32.10;51.40;;;;;;5030640;28;20204;-80
2022/07/24 08:18:27;;;;;;;8.30;3.75;;;32.20;51.20;;;;;;5039902;28;20214;-79
2022/07/24 08:21:00;;;;;;;7.35;4.38;;;32.20;51.00;;;;;;5042167;28;20233;-80
2022/07/24 08:23:29;;;;;;;8.18;3.70;;;32.30;50.60;;;;;;5042407;28;20301;-80
2022/07/24 08:26:01;;;;;;;7.22;3.40;;;32.30;50.60;;;;;;5037980;28;20211;-80
2022/07/24 08:28:29;;;;;;;8.68;3.97;;;32.40;50.50;;;;;;5056956;28;20199;-82
2022/07/24 08:30:58;;;;;;;8.05;3.47;;;32.50;50.20;;;;;;5047808;28;20190;-82
2022/07/24 08:33:27;;;;;;;7.68;3.20;;;32.60;50.10;;;;;;5045616;28;20205;-80
2022/07/24 08:35:55;;;;;;;7.88;3.55;;;32.70;49.90;;;;;;5042754;28;20672;-80
2022/07/24 08:38:26;;;;;;;6.82;3.53;;;32.70;49.10;;;;;;5056566;28;20576;-83
2022/07/24 08:40:57;;;;;;;5.25;3.22;;;32.80;49.00;;;;;;5055742;28;20210;-83
2022/07/24 08:43:28;;;;;;;7.55;3.63;;;32.90;49.00;;;;;;5040662;28;20213;-82
2022/07/24 08:46:01;;;;;;;6.93;3.53;;;32.90;48.70;;;;;;5039811;28;20306;-82
2022/07/24 08:48:32;;;;;;;7.63;3.50;;;33.00;48.70;;;;;;5034556;28;20285;-78
2022/07/24 08:51:02;;;;;;;8.77;3.58;;;33.10;48.60;;;;;;5034884;28;20286;-79
2022/07/24 08:53:30;;;;;;;6.38;3.35;;;33.10;48.10;;;;;;5037456;28;20191;-80
2022/07/24 08:55:59;;;;;;;9.15;3.47;;;33.10;48.20;;;;;;5038368;28;20283;-78
2022/07/24 08:58:29;;;;;;;12.43;3.97;;;33.20;48.40;;;;;;5052019;28;20281;-78
2022/07/24 09:01:00;;;;;;;5.90;3.45;;;33.30;48.30;;;;;;5038206;28;20203;-79
2022/07/24 09:03:29;;;;;;;9.48;4.13;;;33.40;48.40;;;;;;5039445;28;20206;-79
2022/07/24 09:05:59;;;;;;;7.78;3.60;;;33.50;48.40;;;;;;5036467;28;20239;-79
2022/07/24 09:08:28;;;;;;;9.63;3.65;;;33.60;48.60;;;;;;5036593;28;20190;-80
2022/07/24 09:11:00;;;;;;;8.05;4.22;;;33.70;48.60;;;;;;5047432;28;20285;-79
2022/07/24 09:14:29;;;;;;;9.85;4.22;;;33.80;49.00;;;;;;5049453;28;20209;-84
2022/07/24 09:16:22;;;;;;;5.88;3.22;;;33.80;48.10;;;;;;5031264;28;20759;-79
2022/07/24 09:19:02;;;;;;;9.40;4.05;;;33.90;48.10;;;;;;5041669;28;20765;-80
2022/07/24 09:21:37;;;;;;;5.47;3.80;;;34.00;48.00;;;;;;5034253;28;20231;-79
2022/07/24 09:24:14;;;;;;;8.65;3.80;;;34.10;47.70;;;;;;5031904;28;20186;-81
2022/07/24 09:26:47;;;;;;;11.15;3.92;;;34.10;47.10;;;;;;5036158;28;20249;-85
2022/07/24 09:29:21;;;;;;;13.70;4.05;;;34.20;46.90;;;;;;5041859;28;20213;-79
2022/07/24 09:31:56;;;;;;;7.90;4.55;;;34.20;46.70;;;;;;5041551;28;20694;-80
2022/07/24 09:34:26;;;;;;;7.57;3.58;;;34.20;46.80;;;;;;5046727;28;20265;-81
2022/07/24 09:36:59;;;;;;;10.80;3.63;;;34.30;46.80;;;;;;5039027;28;20203;-78
2022/07/24 09:39:29;;;;;;;6.43;3.58;;;34.30;46.50;;;;;;5037666;28;20209;-79
2022/07/24 09:41:58;;;;;;;10.00;3.97;;;34.30;46.60;;;;;;5038588;28;20569;-78
2022/07/24 09:44:29;;;;;;;11.13;3.78;;;34.40;46.60;;;;;;5033787;28;20211;-79
2022/07/24 09:47:00;;;;;;;7.22;3.58;;;34.40;46.50;;;;;;5032588;28;20211;-78
2022/07/24 09:49:30;;;;;;;10.82;3.95;;;34.40;46.80;;;;;;5041491;28;20776;-79
2022/07/24 09:52:11;;;;;;;8.05;3.78;;;34.50;46.90;;;;;;5043189;28;20241;-77
2022/07/24 09:54:41;;;;;;;10.23;4.50;;;34.50;46.60;;;;;;5032437;28;20202;-79
2022/07/24 09:57:21;;;;;;;6.40;3.42;;;34.50;46.20;;;;;;5036268;28;20227;-79
2022/07/24 09:59:53;;;;;;;10.10;4.00;;;34.60;46.40;;;;;;5038712;28;20203;-80
2022/07/24 10:02:26;;;;;;;9.05;4.38;;;34.60;46.50;;;;;;5053719;28;20297;-81
2022/07/24 10:04:56;;;;;;;13.25;3.72;;;34.60;46.50;;;;;;5051537;28;20270;-80
2022/07/24 10:07:26;;;;;;;10.07;3.75;;;34.60;46.40;;;;;;5041845;28;20200;-78
2022/07/24 10:09:57;;;;;;;8.82;3.67;;;34.70;46.10;;;;;;5052265;28;20211;-78
2022/07/24 10:12:28;;;;;;;9.23;4.15;;;34.70;45.20;;;;;;5047116;28;20218;-79
2022/07/24 10:15:00;;;;;;;7.63;4.25;;;34.70;45.00;;;;;;5038916;28;20241;-80
2022/07/24 10:17:42;;;;;;;7.28;3.40;;;34.70;45.00;;;;;;5034306;28;20207;-79
2022/07/24 10:20:12;;;;;;;7.43;3.40;;;34.80;45.00;;;;;;5027720;28;20554;-79
2022/07/24 10:23:06;;;;;;;9.60;4.05;;;34.80;45.30;;;;;;5039754;28;20233;-83
2022/07/24 10:25:49;;;;;;;6.88;4.00;;;34.90;45.30;;;;;;5039047;28;20219;-79
2022/07/24 10:28:32;;;;;;;9.73;3.80;;;35.00;45.20;;;;;;5046935;28;20191;-80
2022/07/24 10:31:03;;;;;;;11.90;4.25;;;35.00;45.20;;;;;;5035857;28;20207;-80
2022/07/24 10:33:31;;;;;;;7.75;3.65;;;35.10;45.20;;;;;;5042062;28;20278;-79
2022/07/24 10:36:03;;;;;;;8.15;3.53;;;35.20;45.00;;;;;;5049017;28;21012;-80
2022/07/24 10:38:37;;;;;;;9.55;4.05;;;35.30;45.80;;;;;;5034732;28;20682;-79
2022/07/24 10:41:14;;;;;;;7.25;3.40;;;35.30;45.10;;;;;;5050007;28;20200;-80
2022/07/24 10:44:17;;;;;;;6.63;3.58;;;35.50;44.50;;;;;;5047103;28;20194;-80
2022/07/24 10:47:06;;;;;;;13.07;4.13;;;35.60;44.40;;;;;;5046172;28;20318;-79
2022/07/24 10:49:42;;;;;;;7.90;3.80;;;35.60;43.50;;;;;;5034121;28;20195;-82
2022/07/24 10:52:21;;;;;;;8.95;3.53;;;35.70;43.80;;;;;;5036020;28;20234;-80
2022/07/24 10:54:50;;;;;;;6.78;4.00;;;35.70;43.90;;;;;;5046842;28;20610;-80
2022/07/24 10:57:19;;;;;;;10.70;3.80;;;35.80;43.80;;;;;;5041656;28;20333;-84
2022/07/24 10:59:47;;;;;;;6.43;3.40;;;35.80;43.00;;;;;;5039102;28;20287;-80
2022/07/24 11:02:29;;;;;;;14.80;4.30;;;35.90;43.10;;;;;;5044427;28;20211;-80
2022/07/24 11:05:26;;;;;;;16.17;4.40;;;36.00;42.60;;;;;;5038623;28;20643;-79
2022/07/24 11:08:29;;;;;;;9.35;5.78;;;36.10;42.20;;;;;;5041608;28;20715;-80
2022/07/24 11:11:01;;;;;;;8.50;3.80;;;36.20;42.40;;;;;;5041011;28;20195;-81
2022/07/24 11:13:50;;;;;;;8.13;3.75;;;36.20;42.30;;;;;;5043539;28;20791;-78
2022/07/24 11:16:27;;;;;;;10.05;3.83;;;36.30;41.50;;;;;;5040593;28;20198;-79
2022/07/24 11:19:29;;;;;;;8.05;3.35;;;36.40;41.60;;;;;;5043671;28;20229;-79
2022/07/24 11:22:11;;;;;;;13.18;4.63;;;36.50;41.10;;;;;;5035751;28;20199;-80
2022/07/24 11:24:58;;;;;;;9.77;3.85;;;36.50;41.00;;;;;;5043517;28;20194;-80
2022/07/24 11:27:26;;;;;;;9.32;3.60;;;36.60;40.60;;;;;;5041259;28;20680;-81
2022/07/24 11:29:55;;;;;;;12.48;4.07;;;36.70;39.90;;;;;;5038586;28;20207;-81
2022/07/24 11:32:28;;;;;;;8.43;3.08;;;36.70;39.30;;;;;;5035734;28;20269;-78
2022/07/24 11:34:59;;;;;;;11.88;3.50;;;36.80;39.60;;;;;;5046569;28;20293;-80
2022/07/24 11:37:31;;;;;;;9.93;3.65;;;36.80;39.80;;;;;;5044183;28;20221;-79
2022/07/24 11:40:04;;;;;;;8.90;3.65;;;36.90;40.00;;;;;;5043009;28;20199;-80
2022/07/24 11:42:33;;;;;;;6.45;3.10;;;37.00;39.40;;;;;;5049116;28;20282;-79
2022/07/24 11:45:03;;;;;;;10.43;3.63;;;37.00;39.20;;;;;;5041554;28;20203;-80
2022/07/24 11:47:32;;;;;;;9.15;3.60;;;37.10;39.00;;;;;;5040051;28;20215;-79
2022/07/24 11:50:04;;;;;;;9.05;3.80;;;37.10;39.30;;;;;;5038369;28;20205;-78
2022/07/24 11:52:35;;;;;;;9.38;3.40;;;37.20;38.70;;;;;;5046584;28;20195;-76
2022/07/24 11:55:06;;;;;;;9.65;3.20;;;37.20;38.10;;;;;;5037386;28;20194;-77
2022/07/24 11:57:45;;;;;;;9.07;3.78;;;37.20;38.10;;;;;;5043209;28;20229;-80
2022/07/24 12:00:33;;;;;;;11.27;3.60;;;37.30;39.20;;;;;;5035174;28;20559;-80
2022/07/24 12:03:03;;;;;;;10.10;3.70;;;37.30;38.50;;;;;;5037551;28;20210;-80
2022/07/24 12:05:34;;;;;;;8.60;3.95;;;37.40;38.50;;;;;;5044581;28;20231;-82
2022/07/24 12:08:15;;;;;;;9.48;3.58;;;37.50;38.50;;;;;;5037993;28;20751;-80
2022/07/24 12:10:45;;;;;;;7.70;3.67;;;37.50;38.50;;;;;;5036178;28;20666;-80
2022/07/24 12:13:14;;;;;;;10.90;3.50;;;37.60;38.80;;;;;;5046386;28;20203;-80
2022/07/24 12:15:45;;;;;;;8.13;3.70;;;37.70;38.70;;;;;;5045729;28;20202;-82
2022/07/24 12:18:13;;;;;;;8.48;3.67;;;37.70;38.60;;;;;;5038918;28;20289;-81
2022/07/24 12:20:45;;;;;;;7.85;3.60;;;37.80;38.30;;;;;;5046957;28;20199;-82
2022/07/24 12:23:18;;;;;;;8.18;3.83;;;37.80;36.90;;;;;;5045805;28;20663;-82
2022/07/24 12:25:48;;;;;;;7.90;3.88;;;37.90;37.00;;;;;;5051215;28;20197;-81
2022/07/24 12:28:18;;;;;;;7.57;3.50;;;38.00;37.50;;;;;;5045568;28;20202;-78
2022/07/24 12:30:48;;;;;;;10.00;3.67;;;38.00;37.10;;;;;;5047444;28;20533;-79
2022/07/24 12:33:22;;;;;;;5.93;3.08;;;38.20;37.60;;;;;;5050935;28;20198;-79
2022/07/24 12:35:58;;;;;;;12.68;3.85;;;38.30;37.10;;;;;;5041778;28;20205;-80
2022/07/24 12:38:28;;;;;;;7.63;3.40;;;38.30;37.10;;;;;;5041354;28;20206;-79
2022/07/24 12:41:04;;;;;;;13.18;3.67;;;38.40;37.40;;;;;;5042763;28;20203;-78
2022/07/24 12:43:33;;;;;;;15.13;4.20;;;38.50;36.80;;;;;;5042849;28;20190;-79
2022/07/24 12:46:10;;;;;;;6.40;3.58;;;38.50;36.50;;;;;;5044188;28;20620;-79
2022/07/24 12:48:39;;;;;;;6.43;3.55;;;38.60;36.40;;;;;;5039172;28;20243;-81
2022/07/24 12:51:12;;;;;;;5.07;3.78;;;38.60;36.60;;;;;;5042525;28;20198;-79
2022/07/24 12:53:41;;;;;;;7.10;3.58;;;38.70;36.50;;;;;;5043971;28;20245;-79
2022/07/24 12:56:13;;;;;;;8.88;3.47;;;38.80;36.50;;;;;;5037197;28;20202;-80
2022/07/24 12:58:58;;;;;;;9.77;3.63;;;38.80;36.10;;;;;;5039990;28;20205;-80
2022/07/24 13:01:28;;;;;;;9.23;4.22;;;38.90;35.90;;;;;;5035297;28;20543;-82
2022/07/24 13:04:03;;;;;;;5.20;3.75;;;39.00;36.10;;;;;;5042729;28;20306;-79